Time;durP1;ratioP1;P1;durP2;ratioP2;P2;SDS_P1;SDS_P2;PMS_P1;PMS_P2;Temp;Humidity;BMP_temperature;BMP_pressure;BME280_temperature;BME280_humidity;BME280_pressure;Samples;Min_cycle;Max_cycle;Signal;HPM_P1;HPM_P2
2022/01/02 00:00:04;;;;;;;41.70;6.18;;;;;;;;;;4985248;28;20053;-72
2022/01/02 00:02:32;;;;;;;42.42;6.75;;;;;;;;;;4960827;28;20042;-73
2022/01/02 00:05:06;;;;;;;48.10;6.43;;;;;;;;;;5008017;28;20168;-73
2022/01/02 00:07:35;;;;;;;32.10;5.63;;;;;;;;;;5003382;28;20069;-74
2022/01/02 00:10:05;;;;;;;35.05;6.80;;;;;;;;;;4992803;28;20060;-74
2022/01/02 00:12:35;;;;;;;34.22;5.57;;;;;;;;;;4995209;28;20395;-74
2022/01/02 00:15:05;;;;;;;23.02;5.97;;;;;;;;;;4993874;28;20034;-72
2022/01/02 00:17:31;;;;;;;37.13;6.18;;;;;;;;;;5009996;28;20039;-73
2022/01/02 00:19:58;;;;;;;29.27;6.50;;;;;;;;;;4987489;28;20038;-73
2022/01/02 00:22:35;;;;;;;43.60;7.20;;;;;;;;;;5010058;28;20061;-72
2022/01/02 00:25:09;;;;;;;25.40;5.25;;;;;;;;;;5008918;28;20049;-74
2022/01/02 00:27:35;;;;;;;30.75;6.45;;;;;;;;;;4969009;28;20043;-75
2022/01/02 00:30:03;;;;;;;43.10;5.53;;;;;;;;;;4977823;28;20057;-75
2022/01/02 00:32:29;;;;;;;22.23;5.03;;;;;;;;;;4984963;28;20434;-74
2022/01/02 00:34:54;;;;;;;43.87;6.30;;;;;;;;;;4993128;28;20069;-75
2022/01/02 00:37:20;;;;;;;29.73;5.87;;;;;;;;;;4990481;28;20502;-75
2022/01/02 00:39:45;;;;;;;33.77;5.47;;;;;;;;;;4992288;28;20035;-75
2022/01/02 00:42:15;;;;;;;26.17;5.80;;;;;;;;;;4994997;28;20042;-72
2022/01/02 00:44:52;;;;;;;52.92;6.47;;;;;;;;;;5009712;28;20034;-75
2022/01/02 00:47:21;;;;;;;30.80;5.57;;;;;;;;;;5010111;28;20035;-75
2022/01/02 00:49:55;;;;;;;19.45;4.72;;;;;;;;;;4991464;28;20084;-75
2022/01/02 00:52:20;;;;;;;26.42;5.18;;;;;;;;;;4994754;28;20042;-75
2022/01/02 00:54:46;;;;;;;24.53;4.77;;;;;;;;;;4994856;28;20382;-75
2022/01/02 00:57:29;;;;;;;31.30;5.57;;;;;;;;;;4994557;28;20038;-72
2022/01/02 01:00:04;;;;;;;28.20;6.97;;;;;;;;;;5003298;28;20046;-72
2022/01/02 01:02:35;;;;;;;30.08;5.97;;;;;;;;;;4994473;28;20069;-75
2022/01/02 01:05:05;;;;;;;28.35;5.68;;;;;;;;;;4993402;28;20038;-74
2022/01/02 01:07:32;;;;;;;35.53;5.50;;;;;;;;;;4989329;28;20124;-75
2022/01/02 01:09:57;;;;;;;;;;;;;;;;;;5010009;28;20085;-75
2022/01/02 01:12:23;;;;;;;21.35;5.93;;;;;;;;;;5009478;28;19949;-71
2022/01/02 01:14:50;;;;;;;28.83;4.95;;;;;;;;;;5009233;28;20116;-72
2022/01/02 01:17:16;;;;;;;38.90;5.20;;;;;;;;;;5009385;28;20038;-72
2022/01/02 01:19:42;;;;;;;32.80;6.27;;;;;;;;;;5006880;28;20533;-71
2022/01/02 01:22:08;;;;;;;27.40;4.28;;;;;;;;;;5009171;28;20066;-71
2022/01/02 01:24:35;;;;;;;30.73;4.63;;;;;;;;;;4994400;28;20113;-72
2022/01/02 01:27:03;;;;;;;24.85;4.35;;;;;;;;;;5006652;28;20034;-72
2022/01/02 01:29:34;;;;;;;31.90;4.95;;;;;;;;;;4985420;28;20027;-72
2022/01/02 01:32:00;;;;;;;25.02;4.97;;;;;;;;;;4987815;28;20035;-74
2022/01/02 01:34:25;;;;;;;41.42;4.82;;;;;;;;;;4989805;28;20035;-74
2022/01/02 01:36:50;;;;;;;34.60;5.50;;;;;;;;;;4988679;28;20031;-74
2022/01/02 01:39:16;;;;;;;30.43;4.87;;;;;;;;;;4993398;28;20093;-74
2022/01/02 01:41:41;;;;;;;21.53;5.17;;;;;;;;;;4983981;28;20081;-73
2022/01/02 01:46:40;;;;;;;30.73;4.50;;;;;;;;;;4989994;28;20467;-72
2022/01/02 01:49:27;;;;;;;30.02;5.82;;;;;;;;;;4999743;28;20066;-71
2022/01/02 01:51:53;;;;;;;33.15;5.03;;;;;;;;;;4994619;28;20121;-72
2022/01/02 01:54:19;;;;;;;27.33;4.95;;;;;;;;;;4991327;28;20043;-71
2022/01/02 01:56:46;;;;;;;23.43;3.37;;;;;;;;;;4986076;28;20107;-71
2022/01/02 01:59:12;;;;;;;25.35;4.45;;;;;;;;;;4980759;28;20034;-72
2022/01/02 02:01:37;;;;;;;27.17;4.33;;;;;;;;;;4985391;28;20042;-71
2022/01/02 02:04:03;;;;;;;30.97;4.87;;;;;;;;;;4980199;28;20476;-72
2022/01/02 02:06:28;;;;;;;31.83;5.80;;;;;;;;;;4974887;28;20496;-72
2022/01/02 02:08:57;;;;;;;36.57;6.53;;;;;;;;;;4997213;28;20030;-72
2022/01/02 02:11:23;;;;;;;29.55;5.18;;;;;;;;;;5006292;28;20026;-72
2022/01/02 02:13:49;;;;;;;30.40;5.32;;;;;;;;;;4984264;28;20404;-72
2022/01/02 02:16:15;;;;;;;31.20;3.87;;;;;;;;;;4998063;28;20043;-72
2022/01/02 02:18:40;;;;;;;20.77;3.97;;;;;;;;;;4982692;28;20037;-72
2022/01/02 02:21:05;;;;;;;30.00;6.17;;;;;;;;;;4993697;28;20053;-72
2022/01/02 02:23:31;;;;;;;27.73;5.40;;;;;;;;;;5004967;28;20133;-72
2022/01/02 02:25:57;;;;;;;24.40;5.10;;;;;;;;;;4989217;28;20046;-72
2022/01/02 02:28:26;;;;;;;24.50;5.40;;;;;;;;;;4983281;28;20479;-72
2022/01/02 02:30:52;;;;;;;24.58;3.95;;;;;;;;;;4985476;28;20042;-71
2022/01/02 02:33:17;;;;;;;20.95;3.88;;;;;;;;;;4996548;28;20093;-71
2022/01/02 02:35:46;;;;;;;31.07;4.97;;;;;;;;;;4995761;28;20523;-72
2022/01/02 02:38:12;;;;;;;36.40;5.38;;;;;;;;;;5005525;28;20053;-72
2022/01/02 02:40:39;;;;;;;39.45;5.35;;;;;;;;;;4996120;28;20042;-72
2022/01/02 02:43:23;;;;;;;24.50;4.32;;;;;;;;;;5005490;28;20026;-72
2022/01/02 02:51:22;;;;;;;32.08;5.20;;;;;;;;;;4990721;28;20054;-72
2022/01/02 02:53:50;;;;;;;28.85;5.78;;;;;;;;;;4997040;28;20053;-72
2022/01/02 02:56:20;;;;;;;28.15;5.40;;;;;;;;;;4993123;28;20501;-71
2022/01/02 02:58:49;;;;;;;30.10;5.28;;;;;;;;;;5009317;28;20042;-72
2022/01/02 03:01:17;;;;;;;37.08;5.30;;;;;;;;;;5001099;28;20878;-71
2022/01/02 03:03:43;;;;;;;27.73;4.95;;;;;;;;;;5006318;28;20376;-71
2022/01/02 03:06:09;;;;;;;32.97;5.82;;;;;;;;;;4986877;28;20047;-72
2022/01/02 03:08:36;;;;;;;27.80;4.70;;;;;;;;;;4997491;28;20110;-72
2022/01/02 03:11:02;;;;;;;;;;;;;;;;;;4989649;28;20438;-71
2022/01/02 03:13:27;;;;;;;21.75;4.53;;;;;;;;;;4992529;28;19920;-72
2022/01/02 03:15:53;;;;;;;38.63;5.53;;;;;;;;;;4996501;28;20411;-72
2022/01/02 03:18:18;;;;;;;28.07;5.77;;;;;;;;;;4994738;28;20077;-72
2022/01/02 03:20:43;;;;;;;26.93;4.57;;;;;;;;;;4989932;28;20030;-72
2022/01/02 03:23:09;;;;;;;35.00;5.43;;;;;;;;;;4997170;28;20119;-72
2022/01/02 03:25:35;;;;;;;22.10;4.07;;;;;;;;;;4991719;28;20043;-71
2022/01/02 03:28:00;;;;;;;35.10;4.47;;;;;;;;;;4990509;28;20018;-71
2022/01/02 03:30:25;;;;;;;22.30;4.53;;;;;;;;;;4996190;28;20054;-72
2022/01/02 03:32:51;;;;;;;20.83;4.30;;;;;;;;;;5011398;28;20166;-73
2022/01/02 03:35:16;;;;;;;26.87;3.97;;;;;;;;;;4992966;28;20064;-72
2022/01/02 03:37:42;;;;;;;25.67;4.93;;;;;;;;;;5001242;28;20062;-71
2022/01/02 03:40:09;;;;;;;27.20;4.73;;;;;;;;;;4991343;28;20034;-72
2022/01/02 03:42:35;;;;;;;30.85;5.10;;;;;;;;;;4986524;28;20031;-71
2022/01/02 03:45:01;;;;;;;21.17;3.92;;;;;;;;;;5004424;28;20041;-72
2022/01/02 03:47:27;;;;;;;26.70;4.25;;;;;;;;;;4990113;28;20088;-72
2022/01/02 03:49:52;;;;;;;20.83;3.67;;;;;;;;;;4991680;28;20034;-71
2022/01/02 03:52:18;;;;;;;23.40;3.37;;;;;;;;;;4993367;28;20038;-71
2022/01/02 03:54:43;;;;;;;18.93;2.77;;;;;;;;;;4992585;28;20104;-72
2022/01/02 03:57:09;;;;;;;29.80;4.30;;;;;;;;;;4992916;28;20464;-73
2022/01/02 03:59:34;;;;;;;14.60;2.63;;;;;;;;;;4987026;28;20117;-72
2022/01/02 04:02:00;;;;;;;24.17;3.50;;;;;;;;;;4990640;28;20110;-72
2022/01/02 04:04:26;;;;;;;17.73;5.03;;;;;;;;;;4984467;28;20035;-72
2022/01/02 04:06:52;;;;;;;;;;;;;;;;;;4987906;28;20034;-72
2022/01/02 04:09:17;;;;;;;19.52;2.60;;;;;;;;;;4978130;28;20382;-71
2022/01/02 04:11:43;;;;;;;11.77;3.00;;;;;;;;;;4986739;28;20398;-71
2022/01/02 04:14:08;;;;;;;15.43;1.73;;;;;;;;;;5004907;28;20038;-72
2022/01/02 04:16:33;;;;;;;3.13;1.23;;;;;;;;;;4989179;28;20034;-72
2022/01/02 04:18:59;;;;;;;12.17;1.47;;;;;;;;;;4989439;28;20082;-72
2022/01/02 04:21:24;;;;;;;4.77;1.10;;;;;;;;;;4987891;28;20030;-72
2022/01/02 04:23:49;;;;;;;4.03;0.80;;;;;;;;;;4987454;28;20499;-72
2022/01/02 04:26:15;;;;;;;3.70;0.90;;;;;;;;;;4980103;28;20041;-71
2022/01/02 04:28:40;;;;;;;4.03;0.90;;;;;;;;;;4980357;28;20035;-72
2022/01/02 04:31:06;;;;;;;2.30;0.53;;;;;;;;;;4979461;28;20062;-71
2022/01/02 04:33:31;;;;;;;1.80;0.63;;;;;;;;;;4981482;28;20033;-73
2022/01/02 04:35:57;;;;;;;2.40;0.70;;;;;;;;;;4983496;28;20046;-72
2022/01/02 04:38:22;;;;;;;5.70;0.93;;;;;;;;;;4994788;28;20045;-71
2022/01/02 04:40:48;;;;;;;3.47;1.20;;;;;;;;;;4993015;28;20031;-72
2022/01/02 04:43:14;;;;;;;3.58;0.98;;;;;;;;;;4981008;28;20066;-72
2022/01/02 04:45:39;;;;;;;4.20;0.60;;;;;;;;;;4982352;28;20057;-72
2022/01/02 04:48:05;;;;;;;3.07;0.57;;;;;;;;;;5006595;28;20527;-74
2022/01/02 04:50:30;;;;;;;3.30;0.70;;;;;;;;;;4980713;28;20430;-73
2022/01/02 04:52:56;;;;;;;4.43;0.73;;;;;;;;;;4994951;28;20081;-73
2022/01/02 04:55:21;;;;;;;4.27;1.33;;;;;;;;;;4979555;28;20086;-74
2022/01/02 04:57:46;;;;;;;4.03;0.70;;;;;;;;;;4986847;28;20038;-72
2022/01/02 05:00:12;;;;;;;2.47;0.60;;;;;;;;;;4985857;28;20480;-74
2022/01/02 05:02:38;;;;;;;5.03;0.77;;;;;;;;;;4991383;28;20022;-75
2022/01/02 05:05:04;;;;;;;3.07;0.87;;;;;;;;;;4984772;28;20394;-75
2022/01/02 05:07:29;;;;;;;7.93;1.90;;;;;;;;;;4990023;28;20188;-75
2022/01/02 05:09:55;;;;;;;4.43;1.23;;;;;;;;;;4988604;28;20033;-75
2022/01/02 05:12:20;;;;;;;5.10;1.20;;;;;;;;;;4994672;28;20038;-75
2022/01/02 05:14:45;;;;;;;6.50;1.17;;;;;;;;;;4985156;28;20445;-72
2022/01/02 05:17:11;;;;;;;4.57;1.30;;;;;;;;;;4982718;28;20041;-73
2022/01/02 05:19:37;;;;;;;8.93;1.87;;;;;;;;;;4984049;28;20069;-72
2022/01/02 05:22:02;;;;;;;7.13;1.47;;;;;;;;;;4994015;28;20113;-72
2022/01/02 05:24:28;;;;;;;4.73;1.90;;;;;;;;;;4985288;28;20043;-72
2022/01/02 05:26:55;;;;;;;5.20;1.77;;;;;;;;;;4980597;28;20045;-72
2022/01/02 05:29:20;;;;;;;;;;;;;;;;;;4986178;28;20108;-72
2022/01/02 05:31:45;;;;;;;9.15;2.72;;;;;;;;;;5001305;28;20375;-72
2022/01/02 05:34:11;;;;;;;8.00;2.87;;;;;;;;;;4984841;28;20038;-73
2022/01/02 05:36:37;;;;;;;7.33;3.43;;;;;;;;;;4984605;28;20038;-72
2022/01/02 05:39:02;;;;;;;8.93;2.80;;;;;;;;;;4986951;28;20026;-72
2022/01/02 05:41:29;;;;;;;9.03;2.80;;;;;;;;;;4989241;28;20041;-72
2022/01/02 05:43:55;;;;;;;5.80;2.28;;;;;;;;;;4988813;28;20034;-72
2022/01/02 05:46:22;;;;;;;10.98;2.70;;;;;;;;;;4985428;28;20045;-72
2022/01/02 05:48:47;;;;;;;9.68;2.72;;;;;;;;;;5002307;28;20031;-72
2022/01/02 05:51:13;;;;;;;6.17;2.40;;;;;;;;;;5009171;28;20145;-72
2022/01/02 05:53:38;;;;;;;18.43;3.60;;;;;;;;;;4993672;28;20530;-72
2022/01/02 05:56:05;;;;;;;9.37;3.10;;;;;;;;;;4992400;28;20034;-72
2022/01/02 05:58:30;;;;;;;12.50;3.72;;;;;;;;;;4985966;28;20034;-72
2022/01/02 06:00:55;;;;;;;9.73;2.77;;;;;;;;;;4983797;28;20126;-74
2022/01/02 06:03:21;;;;;;;9.07;3.20;;;;;;;;;;4975567;28;20580;-75
2022/01/02 06:05:46;;;;;;;12.80;3.53;;;;;;;;;;4987134;28;20038;-74
2022/01/02 06:08:12;;;;;;;11.53;3.90;;;;;;;;;;4981425;28;20443;-74
2022/01/02 06:10:37;;;;;;;31.70;5.03;;;;;;;;;;4977065;28;20046;-74
2022/01/02 06:13:03;;;;;;;11.43;3.93;;;;;;;;;;4976835;28;20035;-72
2022/01/02 06:15:28;;;;;;;16.60;5.00;;;;;;;;;;4983821;28;20026;-72
2022/01/02 06:17:53;;;;;;;17.30;4.30;;;;;;;;;;4993090;28;20456;-72
2022/01/02 06:20:19;;;;;;;17.93;4.07;;;;;;;;;;4983122;28;20050;-72
2022/01/02 06:22:44;;;;;;;10.27;3.73;;;;;;;;;;4993437;28;20125;-72
2022/01/02 06:25:10;;;;;;;15.53;4.13;;;;;;;;;;4984206;28;20043;-72
2022/01/02 06:27:35;;;;;;;15.27;3.90;;;;;;;;;;4989465;28;20114;-72
2022/01/02 06:30:01;;;;;;;15.37;3.73;;;;;;;;;;4979491;28;20049;-72
2022/01/02 06:32:26;;;;;;;16.10;3.50;;;;;;;;;;4999178;28;20049;-72
2022/01/02 06:34:52;;;;;;;13.73;2.90;;;;;;;;;;4978246;28;20085;-72
2022/01/02 06:37:17;;;;;;;9.43;2.20;;;;;;;;;;4991090;28;20121;-72
2022/01/02 06:39:42;;;;;;;13.03;2.10;;;;;;;;;;4981299;28;20031;-72
2022/01/02 06:42:08;;;;;;;11.43;2.30;;;;;;;;;;4988348;28;20045;-71
2022/01/02 06:44:34;;;;;;;8.77;1.67;;;;;;;;;;5003389;28;20522;-72
2022/01/02 06:46:59;;;;;;;7.53;1.77;;;;;;;;;;4994409;28;20042;-72
2022/01/02 06:49:24;;;;;;;14.07;3.03;;;;;;;;;;4985477;28;20039;-72
2022/01/02 06:51:50;;;;;;;15.20;2.53;;;;;;;;;;4993637;28;20035;-72
2022/01/02 06:54:15;;;;;;;12.70;1.87;;;;;;;;;;4987164;28;20050;-72
2022/01/02 06:56:41;;;;;;;9.37;2.33;;;;;;;;;;4996401;28;20386;-72
2022/01/02 06:59:06;;;;;;;12.47;1.97;;;;;;;;;;4990197;28;20042;-72
2022/01/02 07:01:32;;;;;;;16.67;2.37;;;;;;;;;;4989618;28;20088;-73
2022/01/02 07:03:57;;;;;;;15.90;2.07;;;;;;;;;;4989563;28;20047;-72
2022/01/02 07:06:22;;;;;;;17.10;1.93;;;;;;;;;;4986063;28;20459;-72
2022/01/02 07:08:48;;;;;;;16.67;1.73;;;;;;;;;;4988095;28;20030;-72
2022/01/02 07:11:13;;;;;;;14.30;2.40;;;;;;;;;;4984487;28;20038;-72
2022/01/02 07:13:40;;;;;;;12.07;1.70;;;;;;;;;;4988435;28;20109;-72
2022/01/02 07:16:06;;;;;;;19.55;3.53;;;;;;;;;;4993989;28;20045;-72
2022/01/02 07:18:31;;;;;;;11.27;3.27;;;;;;;;;;4992437;28;20035;-72
2022/01/02 07:20:57;;;;;;;13.73;2.93;;;;;;;;;;4990508;28;20042;-71
2022/01/02 07:23:22;;;;;;;12.40;2.50;;;;;;;;;;4988402;28;20496;-72
2022/01/02 07:25:47;;;;;;;14.87;1.83;;;;;;;;;;4978733;28;20471;-72
2022/01/02 07:28:13;;;;;;;15.30;1.77;;;;;;;;;;4982058;28;20023;-72
2022/01/02 07:30:38;;;;;;;12.20;2.40;;;;;;;;;;4990171;28;20383;-74
2022/01/02 07:33:03;;;;;;;12.23;2.10;;;;;;;;;;4976964;28;20030;-74
2022/01/02 07:35:29;;;;;;;17.53;1.87;;;;;;;;;;4978509;28;20035;-74
2022/01/02 07:37:56;;;;;;;14.53;2.90;;;;;;;;;;5008352;28;20141;-74
2022/01/02 07:40:22;;;;;;;15.85;2.03;;;;;;;;;;4972658;28;20291;-75
2022/01/02 07:42:47;;;;;;;17.97;2.60;;;;;;;;;;4987881;28;20387;-71
2022/01/02 07:45:13;;;;;;;7.93;1.57;;;;;;;;;;4988163;28;20027;-71
2022/01/02 07:47:39;;;;;;;17.93;3.77;;;;;;;;;;4994911;28;20038;-71
2022/01/02 07:50:05;;;;;;;13.87;2.20;;;;;;;;;;5009002;28;20023;-71
2022/01/02 07:52:31;;;;;;;11.88;1.83;;;;;;;;;;4987352;28;20296;-71
2022/01/02 07:54:57;;;;;;;9.73;1.57;;;;;;;;;;4990042;28;20045;-72
2022/01/02 07:57:22;;;;;;;17.07;2.50;;;;;;;;;;4994742;28;20109;-72
2022/01/02 07:59:47;;;;;;;18.17;2.57;;;;;;;;;;4977936;28;20090;-72
2022/01/02 08:02:13;;;;;;;12.43;2.33;;;;;;;;;;4976785;28;20062;-71
2022/01/02 08:04:38;;;;;;;13.07;2.80;;;;;;;;;;4984279;28;20088;-72
2022/01/02 08:07:04;;;;;;;15.87;2.00;;;;;;;;;;4979438;28;20049;-71
2022/01/02 08:09:29;;;;;;;13.10;3.00;;;;;;;;;;5003829;28;20045;-71
2022/01/02 08:11:55;;;;;;;17.33;3.57;;;;;;;;;;4976693;28;20141;-74
2022/01/02 08:14:21;;;;;;;13.83;2.20;;;;;;;;;;4982347;28;20034;-71
2022/01/02 08:16:47;;;;;;;39.65;3.85;;;;;;;;;;4984274;28;20384;-71
2022/01/02 08:19:12;;;;;;;19.73;2.77;;;;;;;;;;4979950;28;20041;-72
2022/01/02 08:21:39;;;;;;;10.97;3.10;;;;;;;;;;4979304;28;20089;-72
2022/01/02 08:24:05;;;;;;;15.07;2.60;;;;;;;;;;5001415;28;20047;-72
2022/01/02 08:26:31;;;;;;;19.95;3.65;;;;;;;;;;4985531;28;20039;-72
2022/01/02 08:29:00;;;;;;;13.63;2.30;;;;;;;;;;4978796;28;20046;-71
2022/01/02 08:31:29;;;;;;;16.70;3.30;;;;;;;;;;4995166;28;20044;-74
2022/01/02 08:33:55;;;;;;;16.77;3.75;;;;;;;;;;4988924;28;20037;-74
2022/01/02 08:36:20;;;;;;;17.13;3.88;;;;;;;;;;4996927;28;20039;-74
2022/01/02 08:38:47;;;;;;;23.53;3.07;;;;;;;;;;5002891;28;20065;-74
2022/01/02 08:41:13;;;;;;;;;;;;;;;;;;4985526;28;20414;-74
2022/01/02 08:43:38;;;;;;;8.88;2.15;;;;;;;;;;5005913;28;19914;-75
2022/01/02 08:46:04;;;;;;;7.40;1.87;;;;;;;;;;4987631;28;20082;-75
2022/01/02 08:48:29;;;;;;;13.00;2.00;;;;;;;;;;4984257;28;20455;-74
2022/01/02 08:50:55;;;;;;;12.17;3.00;;;;;;;;;;4986343;28;20172;-72
2022/01/02 08:53:20;;;;;;;15.87;2.17;;;;;;;;;;5006852;28;20463;-72
2022/01/02 08:55:46;;;;;;;17.37;1.73;;;;;;;;;;4989668;28;20085;-72
2022/01/02 08:58:11;;;;;;;12.67;2.20;;;;;;;;;;4975318;28;20062;-72
2022/01/02 09:00:37;;;;;;;12.53;3.43;;;;;;;;;;4991364;28;20063;-72
2022/01/02 09:03:03;;;;;;;10.73;2.17;;;;;;;;;;4974621;28;20475;-71
2022/01/02 09:05:28;;;;;;;7.97;1.55;;;;;;;;;;4987994;28;20121;-72
2022/01/02 09:07:54;;;;;;;6.73;1.77;;;;;;;;;;4980678;28;20122;-72
2022/01/02 09:10:21;;;;;;;37.97;4.63;;;;;;;;;;5005004;28;20053;-72
2022/01/02 09:12:46;;;;;;;11.50;2.00;;;;;;;;;;4981978;28;20049;-72
2022/01/02 09:15:12;;;;;;;9.83;2.13;;;;;;;;;;4988214;28;20104;-72
2022/01/02 09:17:37;;;;;;;6.67;1.40;;;;;;;;;;4991352;28;20026;-72
2022/01/02 09:20:05;;;;;;;8.37;1.33;;;;;;;;;;5003338;28;20031;-72
2022/01/02 09:22:30;;;;;;;16.40;2.00;;;;;;;;;;4997201;28;20038;-71
2022/01/02 09:24:56;;;;;;;9.50;1.10;;;;;;;;;;4995267;28;20112;-72
2022/01/02 09:27:21;;;;;;;10.77;2.20;;;;;;;;;;4978003;28;20502;-72
2022/01/02 09:29:47;;;;;;;7.40;2.07;;;;;;;;;;4977032;28;20034;-72
2022/01/02 09:32:12;;;;;;;10.63;1.70;;;;;;;;;;4977435;28;20030;-72
2022/01/02 09:34:38;;;;;;;6.47;1.13;;;;;;;;;;4999017;28;20501;-72
2022/01/02 09:37:04;;;;;;;10.20;1.53;;;;;;;;;;4991643;28;20038;-72
2022/01/02 09:39:30;;;;;;;6.97;1.30;;;;;;;;;;4997487;28;20027;-72
2022/01/02 09:41:56;;;;;;;7.20;1.77;;;;;;;;;;4985160;28;20030;-71
2022/01/02 09:44:21;;;;;;;9.33;1.37;;;;;;;;;;4992940;28;20039;-72
2022/01/02 09:46:51;;;;;;;15.60;3.13;;;;;;;;;;4990110;28;20033;-71
2022/01/02 09:49:17;;;;;;;14.00;3.42;;;;;;;;;;5000459;28;20049;-72
2022/01/02 09:51:42;;;;;;;5.07;1.47;;;;;;;;;;4986104;28;20027;-72
2022/01/02 09:54:09;;;;;;;7.77;1.50;;;;;;;;;;4979161;28;20058;-72
2022/01/02 09:56:34;;;;;;;;;;;;;;;;;;4993558;28;20054;-72
2022/01/02 09:59:02;;;;;;;4.80;1.60;;;;;;;;;;5004679;28;19953;-71
2022/01/02 10:01:29;;;;;;;11.20;2.20;;;;;;;;;;4982375;28;20065;-72
2022/01/02 10:03:56;;;;;;;8.73;1.05;;;;;;;;;;5002241;28;20073;-72
2022/01/02 10:06:38;;;;;;;8.73;1.45;;;;;;;;;;4993421;28;20122;-73
2022/01/02 10:09:04;;;;;;;10.68;0.93;;;;;;;;;;4991433;28;20121;-72
2022/01/02 10:11:29;;;;;;;6.17;1.00;;;;;;;;;;4985736;28;20146;-72
2022/01/02 10:14:01;;;;;;;5.80;1.17;;;;;;;;;;4993054;28;20032;-72
2022/01/02 10:16:26;;;;;;;9.60;1.25;;;;;;;;;;4991828;28;20050;-72
2022/01/02 10:18:54;;;;;;;6.37;0.90;;;;;;;;;;4993021;28;20034;-72
2022/01/02 10:21:33;;;;;;;8.27;1.27;;;;;;;;;;4993031;28;20471;-72
2022/01/02 10:24:19;;;;;;;5.45;1.08;;;;;;;;;;4992767;28;20042;-72
2022/01/02 10:27:08;;;;;;;4.75;0.85;;;;;;;;;;4965790;28;20440;-72
2022/01/02 10:29:50;;;;;;;7.65;1.35;;;;;;;;;;4991243;28;20550;-74
2022/01/02 10:32:29;;;;;;;9.20;1.02;;;;;;;;;;4977271;28;20034;-73
2022/01/02 10:35:18;;;;;;;6.00;0.82;;;;;;;;;;4974786;28;20046;-72
2022/01/02 10:37:50;;;;;;;8.50;1.00;;;;;;;;;;4981223;28;20027;-73
2022/01/02 10:40:34;;;;;;;3.40;0.80;;;;;;;;;;4969615;28;20042;-72
2022/01/02 10:43:04;;;;;;;10.75;1.13;;;;;;;;;;4999653;28;20034;-73
2022/01/02 10:45:47;;;;;;;6.68;1.70;;;;;;;;;;4988079;28;20053;-72
2022/01/02 10:48:15;;;;;;;6.82;1.70;;;;;;;;;;4982363;28;20034;-73
2022/01/02 10:51:05;;;;;;;3.90;1.00;;;;;;;;;;4987032;28;20719;-72
2022/01/02 10:53:32;;;;;;;5.07;0.90;;;;;;;;;;4974009;28;20030;-73
2022/01/02 10:55:57;;;;;;;;;;;;;;;;;;4979271;28;20047;-72
2022/01/02 10:58:25;;;;;;;11.07;2.05;;;;;;;;;;4997166;28;20389;-73
2022/01/02 11:00:50;;;;;;;6.63;1.27;;;;;;;;;;4979400;28;20030;-75
2022/01/02 11:03:16;;;;;;;12.67;1.30;;;;;;;;;;4980204;28;20069;-74
2022/01/02 11:05:44;;;;;;;4.40;0.90;;;;;;;;;;4993482;28;20419;-75
2022/01/02 11:08:12;;;;;;;4.45;0.80;;;;;;;;;;4995680;28;20038;-76
2022/01/02 11:10:44;;;;;;;3.30;0.88;;;;;;;;;;4973378;28;20161;-75
2022/01/02 11:13:09;;;;;;;8.77;1.17;;;;;;;;;;4969930;28;20435;-76
2022/01/02 11:15:35;;;;;;;3.80;1.33;;;;;;;;;;4970178;28;20058;-77
2022/01/02 11:18:00;;;;;;;4.47;0.60;;;;;;;;;;4972536;28;20407;-75
2022/01/02 11:20:29;;;;;;;13.20;2.43;;;;;;;;;;4970839;28;20057;-76
2022/01/02 11:23:14;;;;;;;4.45;0.93;;;;;;;;;;4971865;28;20047;-75
2022/01/02 11:25:43;;;;;;;5.85;1.20;;;;;;;;;;4978034;28;20074;-74
2022/01/02 11:28:33;;;;;;;2.42;0.95;;;;;;;;;;4985127;28;20047;-74
2022/01/02 11:30:58;;;;;;;4.60;0.88;;;;;;;;;;4983667;28;20030;-74
2022/01/02 11:33:37;;;;;;;4.17;1.10;;;;;;;;;;4983121;28;20130;-74
2022/01/02 11:36:21;;;;;;;4.00;0.65;;;;;;;;;;4984528;28;20074;-74
2022/01/02 11:39:08;;;;;;;5.20;2.25;;;;;;;;;;4977963;28;20372;-74
2022/01/02 11:41:35;;;;;;;16.73;4.30;;;;;;;;;;4990855;28;20042;-71
2022/01/02 11:44:00;;;;;;;5.95;2.00;;;;;;;;;;5007711;28;20042;-71
2022/01/02 11:46:50;;;;;;;12.63;2.20;;;;;;;;;;4994917;28;20467;-71
2022/01/02 11:49:22;;;;;;;3.63;1.30;;;;;;;;;;4988270;28;20439;-71
2022/01/02 11:51:47;;;;;;;5.15;1.33;;;;;;;;;;4977772;28;20215;-74
2022/01/02 11:54:28;;;;;;;8.03;2.23;;;;;;;;;;4979810;28;20486;-74
2022/01/02 11:57:04;;;;;;;9.85;2.35;;;;;;;;;;4979439;28;20043;-75
2022/01/02 11:59:39;;;;;;;5.85;1.80;;;;;;;;;;4979063;28;20019;-74
2022/01/02 12:02:27;;;;;;;15.90;4.97;;;;;;;;;;4983457;28;20050;-74
2022/01/02 12:07:33;;;;;;;10.45;5.80;;;;;;;;;;4975762;28;20497;-74
2022/01/02 12:10:14;;;;;;;9.07;4.65;;;;;;;;;;4979903;28;20034;-74
2022/01/02 12:13:06;;;;;;;10.90;4.22;;;;;;;;;;4975756;28;20038;-75
2022/01/02 12:15:34;;;;;;;6.70;2.72;;;;;;;;;;4975348;28;20030;-74
2022/01/02 12:18:33;;;;;;;15.63;4.43;;;;;;;;;;4980992;28;20498;-74
2022/01/02 12:21:04;;;;;;;9.48;3.70;;;;;;;;;;5007807;28;20026;-73
2022/01/02 12:23:29;;;;;;;3.65;1.17;;;;;;;;;;4992792;28;20035;-74
2022/01/02 12:25:58;;;;;;;5.03;1.37;;;;;;;;;;4993295;28;20045;-74
2022/01/02 12:28:24;;;;;;;5.80;1.52;;;;;;;;;;5008233;28;20049;-71
2022/01/02 12:30:51;;;;;;;3.87;1.10;;;;;;;;;;4974342;28;20039;-74
2022/01/02 12:33:28;;;;;;;7.28;1.42;;;;;;;;;;4992764;28;20062;-74
2022/01/02 12:35:53;;;;;;;5.97;2.00;;;;;;;;;;4977243;28;20027;-73
2022/01/02 12:38:19;;;;;;;3.83;1.03;;;;;;;;;;4994967;28;20033;-74
2022/01/02 12:40:46;;;;;;;6.20;1.20;;;;;;;;;;4991329;28;20030;-73
2022/01/02 12:43:11;;;;;;;5.40;0.90;;;;;;;;;;4990793;28;20034;-75
2022/01/02 12:45:38;;;;;;;4.70;1.33;;;;;;;;;;5009297;28;20033;-74
2022/01/02 12:48:04;;;;;;;9.80;1.10;;;;;;;;;;4994583;28;20092;-74
2022/01/02 12:50:31;;;;;;;5.43;0.88;;;;;;;;;;5009961;28;20030;-74
2022/01/02 12:52:58;;;;;;;6.30;1.42;;;;;;;;;;4994344;28;20080;-74
2022/01/02 12:55:23;;;;;;;;;;;;;;;;;;4994353;28;20053;-74
2022/01/02 12:57:49;;;;;;;5.43;0.70;;;;;;;;;;4994991;28;19918;-74
2022/01/02 13:00:15;;;;;;;5.77;1.10;;;;;;;;;;5010004;28;20128;-75
2022/01/02 13:02:41;;;;;;;6.75;0.88;;;;;;;;;;4995275;28;20113;-73
2022/01/02 13:05:06;;;;;;;5.20;1.23;;;;;;;;;;4983520;28;20093;-74
2022/01/02 13:07:37;;;;;;;5.00;1.00;;;;;;;;;;4990770;28;20085;-74
2022/01/02 13:10:15;;;;;;;15.25;1.80;;;;;;;;;;4989091;28;20072;-74
2022/01/02 13:12:41;;;;;;;7.78;1.27;;;;;;;;;;4980206;28;20073;-74
2022/01/02 13:15:09;;;;;;;11.07;2.03;;;;;;;;;;4988671;28;20108;-74
2022/01/02 13:17:39;;;;;;;10.20;1.70;;;;;;;;;;4993760;28;20034;-74
2022/01/02 13:20:11;;;;;;;7.43;2.35;;;;;;;;;;4988804;28;20483;-73
2022/01/02 13:22:48;;;;;;;6.68;1.55;;;;;;;;;;4997812;28;20046;-74
2022/01/02 13:25:19;;;;;;;6.45;1.40;;;;;;;;;;4980378;28;20058;-74
2022/01/02 13:28:01;;;;;;;9.63;3.00;;;;;;;;;;4969480;28;20057;-75
2022/01/02 13:30:29;;;;;;;6.97;1.30;;;;;;;;;;4975037;28;20491;-73
2022/01/02 13:32:55;;;;;;;8.85;1.52;;;;;;;;;;4974674;28;20039;-74
2022/01/02 13:35:23;;;;;;;6.03;1.48;;;;;;;;;;4977919;28;20464;-71
2022/01/02 13:38:00;;;;;;;3.70;1.20;;;;;;;;;;4979101;28;20038;-72
2022/01/02 13:40:28;;;;;;;7.30;3.17;;;;;;;;;;4993120;28;20034;-71
2022/01/02 13:42:54;;;;;;;12.20;4.05;;;;;;;;;;4992754;28;20084;-71
2022/01/02 13:45:29;;;;;;;4.13;1.33;;;;;;;;;;4990731;28;20190;-71
2022/01/02 13:47:55;;;;;;;5.05;1.70;;;;;;;;;;5003166;28;20041;-72
2022/01/02 13:50:29;;;;;;;3.78;1.60;;;;;;;;;;5009225;28;20045;-72
2022/01/02 13:52:57;;;;;;;4.88;1.60;;;;;;;;;;4984849;28;20069;-71
2022/01/02 13:55:32;;;;;;;5.43;1.88;;;;;;;;;;4985814;28;20033;-72
2022/01/02 13:57:59;;;;;;;10.65;2.38;;;;;;;;;;4993539;28;20411;-72
2022/01/02 14:00:27;;;;;;;7.07;1.35;;;;;;;;;;5000323;28;20031;-71
2022/01/02 14:02:54;;;;;;;5.45;1.20;;;;;;;;;;4989293;28;20026;-71
2022/01/02 14:05:20;;;;;;;3.05;1.00;;;;;;;;;;5008744;28;20034;-72
2022/01/02 14:07:46;;;;;;;6.72;1.48;;;;;;;;;;4986852;28;20038;-72
2022/01/02 14:10:15;;;;;;;3.13;1.10;;;;;;;;;;5003462;28;20035;-72
2022/01/02 14:12:40;;;;;;;5.35;0.95;;;;;;;;;;4998630;28;20503;-73
2022/01/02 14:15:21;;;;;;;6.27;1.87;;;;;;;;;;4979787;28;20070;-72
2022/01/02 14:17:49;;;;;;;4.18;1.83;;;;;;;;;;4979817;28;20078;-72
2022/01/02 14:20:17;;;;;;;9.48;1.27;;;;;;;;;;4977096;28;20030;-71
2022/01/02 14:22:43;;;;;;;10.25;2.47;;;;;;;;;;4990189;28;20069;-71
2022/01/02 14:25:09;;;;;;;6.10;1.95;;;;;;;;;;4977009;28;20037;-71
2022/01/02 14:27:36;;;;;;;7.87;2.00;;;;;;;;;;4977531;28;20371;-73
2022/01/02 14:30:02;;;;;;;;;;;;;;;;;;4957973;28;20138;-74
2022/01/02 14:32:28;;;;;;;10.07;2.33;;;;;;;;;;4962159;28;20040;-77
2022/01/02 14:34:54;;;;;;;4.60;1.60;;;;;;;;;;4961124;28;20097;-76
2022/01/02 14:37:21;;;;;;;4.85;2.72;;;;;;;;;;4976833;28;20053;-75
2022/01/02 14:39:47;;;;;;;7.30;1.58;;;;;;;;;;4974646;28;20039;-75
2022/01/02 14:42:13;;;;;;;8.07;1.90;;;;;;;;;;4977147;28;20097;-73
2022/01/02 14:44:39;;;;;;;5.63;2.00;;;;;;;;;;4980851;28;20272;-71
2022/01/02 14:47:05;;;;;;;13.07;2.60;;;;;;;;;;4977868;28;20043;-73
2022/01/02 14:49:31;;;;;;;12.70;2.60;;;;;;;;;;4958471;28;20050;-72
2022/01/02 14:51:57;;;;;;;9.05;2.50;;;;;;;;;;4962835;28;20038;-74